Tropical Cyclones
[Index]
Main Index Home Page Stock Weather Photos Extreme Storms Discussion Storm News and Storm Chasing Reports Tropical Cyclones / Hurricanes / Typhoons Weather Data and Links Wild Fires / Bushfires Weather Observation Techniques Weather Picture Catalogue Tornado Pictures and Reports Stock Video Footage and DVDs for sale
Season 2002-2003 Tropical Cyclone AMI Track Map
Season 2002-2003 Summaries: [BoM-AU] [JTWC-AU] [JTWC-SIO] [JTWC-SPAC] [JTWC-SH]
<<- Previous TC | JTWC 2002-2003 Season | Next TC ->>

click for intensity scale information  Lat/long Grid: Show Hide

 Date Labels: Show Hide

Joint Typhoon Warning Centre Cyclone Data

Name: AMI

10 Jan 2003 12:00 UTC to 15 Jan 2003 12:00 UTC

    date/time    lat    long     hPa   cat  kts
2003-01-10 12    9.5   177.6W   1006         15          
2003-01-10 18    9.6   178.0W   1006         15          
2003-01-11 00    9.8   178.5W   1009         25          
2003-01-11 06   10.1   179.0W   1002         25          
2003-01-11 12   10.7   179.3W   1009         30          
2003-01-11 18   11.1   179.4W    997         35          
2003-01-12 00   11.3   179.5W   1002    1    40          
2003-01-12 06   11.5   179.7W   1000    1    45          
2003-01-12 12   11.9   179.9     984    2    55          
2003-01-12 18   12.5   179.8     976    2    65          
2003-01-13 00   13.3   179.8     967    3    75          
2003-01-13 06   14.3   179.7     958    3    85          
2003-01-13 12   15.3   179.7     954    3    90          
2003-01-13 18   17.0   180.0     949    3    95          
2003-01-14 00   19.2   179.2W    952    4   110          
2003-01-14 06   21.1   177.9W    952    4   110          
2003-01-14 12   23.2   176.1W    956    4   105          
2003-01-14 18   25.2   173.3W    944    4   100          
2003-01-15 00   27.2   169.9W    954    3    90          
2003-01-15 06   28.7   166.0W    984    2    70          
2003-01-15 12   29.0   161.7W    972    2    70          
Winds are 1-min average.

Tropical cyclone tracks developed by Michael Bath using data from the Joint Typhoon Warning Centre Best Tracks and Google Maps.


[Australian Severe Weather index] [Copyright Notice] [Email Contacts] [Search This Site] [Privacy Policy]
Document: tropical_cyclone_ami.htm Updated: 28 June 2017